Terminal Aerodrome Forecast
Issued by NWS

Home | Current Version | Previous Version | Text Only | Print | Product List | Glossary On
Versions: 1 2 3 4 5 6 7 8 9 10 11 12
000
FTUS46 KSGX 190530
TAFTRM
TAF
KTRM 190530Z 1906/2006 33011G18KT P6SM SKC
     FM191100 32015G25KT P6SM SKC
     FM192000 32020G30KT P6SM SKC
     FM200500 32015G25KT P6SM SKC=

USA.gov is the U.S. government's official web portal to all federal, state and local government web resources and services.